sensor_id;sensor_type;location;lat;lon;timestamp;noise_LAeq;noise_LA_min;noise_LA_max;noise_LA01;noise_LA95
67306;Laerm;57661;51.436;5.978;2023-03-31T00:00:05;28.18;26.99;29.09;;
67306;Laerm;57661;51.436;5.978;2023-03-31T00:00:20;28.21;26.88;29.38;;
67306;Laerm;57661;51.436;5.978;2023-03-31T00:00:31;28.17;27.06;29.25;;
67306;Laerm;57661;51.436;5.978;2023-03-31T00:00:41;28.20;27.02;29.24;;
67306;Laerm;57661;51.436;5.978;2023-03-31T00:00:53;28.18;27.25;29.13;;
67306;Laerm;57661;51.436;5.978;2023-03-31T00:01:03;28.16;26.84;28.85;;
67306;Laerm;57661;51.436;5.978;2023-03-31T00:01:15;28.22;27.17;29.05;;
67306;Laerm;57661;51.436;5.978;2023-03-31T00:01:26;28.20;27.28;29.19;;
67306;Laerm;57661;51.436;5.978;2023-03-31T00:01:37;28.19;27.07;29.11;;
67306;Laerm;57661;51.436;5.978;2023-03-31T00:01:53;28.19;27.10;29.20;;
67306;Laerm;57661;51.436;5.978;2023-03-31T00:02:03;28.18;27.39;29.27;;
67306;Laerm;57661;51.436;5.978;2023-03-31T00:02:22;28.17;27.11;29.09;;
67306;Laerm;57661;51.436;5.978;2023-03-31T00:02:32;28.21;27.27;29.20;;
67306;Laerm;57661;51.436;5.978;2023-03-31T00:02:42;28.16;27.17;29.26;;
67306;Laerm;57661;51.436;5.978;2023-03-31T00:02:53;28.20;27.19;29.20;;
67306;Laerm;57661;51.436;5.978;2023-03-31T00:03:05;28.20;27.41;29.36;;
67306;Laerm;57661;51.436;5.978;2023-03-31T00:03:19;28.20;27.05;29.10;;
67306;Laerm;57661;51.436;5.978;2023-03-31T00:03:32;28.20;26.99;29.06;;
67306;Laerm;57661;51.436;5.978;2023-03-31T00:03:43;28.24;27.14;29.12;;
67306;Laerm;57661;51.436;5.978;2023-03-31T00:03:53;28.20;27.08;28.99;;
67306;Laerm;57661;51.436;5.978;2023-03-31T00:04:12;28.16;27.11;29.09;;
67306;Laerm;57661;51.436;5.978;2023-03-31T00:04:22;28.18;27.32;29.03;;
67306;Laerm;57661;51.436;5.978;2023-03-31T00:04:33;28.17;27.32;29.04;;
67306;Laerm;57661;51.436;5.978;2023-03-31T00:04:43;28.19;27.31;29.01;;
67306;Laerm;57661;51.436;5.978;2023-03-31T00:05:01;28.19;27.25;29.08;;
67306;Laerm;57661;51.436;5.978;2023-03-31T00:05:11;28.20;27.05;28.96;;
67306;Laerm;57661;51.436;5.978;2023-03-31T00:05:27;28.19;27.02;29.11;;
67306;Laerm;57661;51.436;5.978;2023-03-31T00:05:37;28.18;26.70;28.99;;
67306;Laerm;57661;51.436;5.978;2023-03-31T00:05:47;28.21;27.24;29.10;;
67306;Laerm;57661;51.436;5.978;2023-03-31T00:05:58;28.21;27.32;29.07;;
67306;Laerm;57661;51.436;5.978;2023-03-31T00:06:10;28.21;27.08;29.14;;
67306;Laerm;57661;51.436;5.978;2023-03-31T00:06:21;28.24;27.33;29.12;;
67306;Laerm;57661;51.436;5.978;2023-03-31T00:06:32;28.46;27.47;32.54;;
67306;Laerm;57661;51.436;5.978;2023-03-31T00:06:46;37.91;27.54;46.35;;
67306;Laerm;57661;51.436;5.978;2023-03-31T00:06:57;28.23;27.22;29.15;;
67306;Laerm;57661;51.436;5.978;2023-03-31T00:07:07;28.17;27.18;28.94;;
67306;Laerm;57661;51.436;5.978;2023-03-31T00:07:19;28.17;27.03;29.12;;
67306;Laerm;57661;51.436;5.978;2023-03-31T00:07:31;28.17;27.19;29.10;;
67306;Laerm;57661;51.436;5.978;2023-03-31T00:07:41;28.20;27.19;29.21;;
67306;Laerm;57661;51.436;5.978;2023-03-31T00:07:53;28.22;27.32;29.09;;
67306;Laerm;57661;51.436;5.978;2023-03-31T00:08:04;28.20;27.24;29.18;;
67306;Laerm;57661;51.436;5.978;2023-03-31T00:08:15;28.20;27.11;29.17;;
67306;Laerm;57661;51.436;5.978;2023-03-31T00:08:26;28.18;27.26;28.99;;
67306;Laerm;57661;51.436;5.978;2023-03-31T00:08:38;28.21;27.35;29.15;;
67306;Laerm;57661;51.436;5.978;2023-03-31T00:08:49;28.18;27.26;28.98;;
67306;Laerm;57661;51.436;5.978;2023-03-31T00:09:00;28.22;27.38;29.29;;
67306;Laerm;57661;51.436;5.978;2023-03-31T00:09:12;28.30;27.20;29.13;;
67306;Laerm;57661;51.436;5.978;2023-03-31T00:09:22;28.27;27.34;29.10;;
67306;Laerm;57661;51.436;5.978;2023-03-31T00:09:33;28.33;27.43;30.92;;
67306;Laerm;57661;51.436;5.978;2023-03-31T00:09:44;28.32;27.48;29.57;;
67306;Laerm;57661;51.436;5.978;2023-03-31T00:09:57;28.28;27.29;29.16;;
67306;Laerm;57661;51.436;5.978;2023-03-31T00:10:10;28.34;27.17;30.45;;
67306;Laerm;57661;51.436;5.978;2023-03-31T00:10:21;28.44;27.34;29.89;;
67306;Laerm;57661;51.436;5.978;2023-03-31T00:10:32;28.27;27.30;29.05;;
67306;Laerm;57661;51.436;5.978;2023-03-31T00:10:43;28.22;27.23;29.46;;
67306;Laerm;57661;51.436;5.978;2023-03-31T00:10:57;28.20;27.30;29.03;;
67306;Laerm;57661;51.436;5.978;2023-03-31T00:11:07;28.16;27.23;29.29;;
67306;Laerm;57661;51.436;5.978;2023-03-31T00:11:17;28.18;27.16;29.13;;
67306;Laerm;57661;51.436;5.978;2023-03-31T00:11:27;28.20;27.40;29.69;;
67306;Laerm;57661;51.436;5.978;2023-03-31T00:11:39;28.21;27.27;29.02;;
67306;Laerm;57661;51.436;5.978;2023-03-31T00:11:49;28.18;27.27;29.25;;
67306;Laerm;57661;51.436;5.978;2023-03-31T00:12:00;28.38;27.33;29.70;;
67306;Laerm;57661;51.436;5.978;2023-03-31T00:12:11;28.44;27.50;30.05;;
67306;Laerm;57661;51.436;5.978;2023-03-31T00:12:22;28.52;27.41;30.10;;
67306;Laerm;57661;51.436;5.978;2023-03-31T00:12:32;28.30;27.54;29.34;;
67306;Laerm;57661;51.436;5.978;2023-03-31T00:12:42;28.31;27.42;29.38;;
67306;Laerm;57661;51.436;5.978;2023-03-31T00:12:53;28.31;27.33;29.25;;
67306;Laerm;57661;51.436;5.978;2023-03-31T00:13:03;28.27;27.21;29.18;;
67306;Laerm;57661;51.436;5.978;2023-03-31T00:13:13;28.25;27.40;29.04;;
67306;Laerm;57661;51.436;5.978;2023-03-31T00:13:23;28.29;27.42;29.19;;
67306;Laerm;57661;51.436;5.978;2023-03-31T00:13:34;28.26;27.39;29.15;;
67306;Laerm;57661;51.436;5.978;2023-03-31T00:13:45;28.29;27.45;29.27;;
67306;Laerm;57661;51.436;5.978;2023-03-31T00:13:55;28.43;27.42;35.44;;
67306;Laerm;57661;51.436;5.978;2023-03-31T00:14:06;28.37;27.26;29.18;;
67306;Laerm;57661;51.436;5.978;2023-03-31T00:14:17;28.49;27.28;34.77;;
67306;Laerm;57661;51.436;5.978;2023-03-31T00:14:28;28.48;27.51;31.17;;
67306;Laerm;57661;51.436;5.978;2023-03-31T00:14:38;28.55;27.17;30.70;;
67306;Laerm;57661;51.436;5.978;2023-03-31T00:14:49;29.09;27.64;38.48;;
67306;Laerm;57661;51.436;5.978;2023-03-31T00:14:59;28.92;27.71;31.85;;
67306;Laerm;57661;51.436;5.978;2023-03-31T00:15:10;28.95;27.77;36.80;;
67306;Laerm;57661;51.436;5.978;2023-03-31T00:15:20;29.25;27.78;39.40;;
67306;Laerm;57661;51.436;5.978;2023-03-31T00:15:30;28.88;27.50;33.32;;
67306;Laerm;57661;51.436;5.978;2023-03-31T00:15:41;29.11;27.36;39.06;;
67306;Laerm;57661;51.436;5.978;2023-03-31T00:15:57;29.12;27.63;38.80;;
67306;Laerm;57661;51.436;5.978;2023-03-31T00:16:08;29.25;27.81;34.11;;
67306;Laerm;57661;51.436;5.978;2023-03-31T00:16:19;29.21;27.97;36.38;;
67306;Laerm;57661;51.436;5.978;2023-03-31T00:16:29;28.97;27.69;36.56;;
67306;Laerm;57661;51.436;5.978;2023-03-31T00:16:39;28.87;27.90;31.23;;
67306;Laerm;57661;51.436;5.978;2023-03-31T00:16:50;28.95;27.63;38.73;;
67306;Laerm;57661;51.436;5.978;2023-03-31T00:17:00;29.24;27.74;39.02;;
67306;Laerm;57661;51.436;5.978;2023-03-31T00:17:11;29.08;27.59;39.20;;
67306;Laerm;57661;51.436;5.978;2023-03-31T00:17:21;28.91;27.56;37.62;;
67306;Laerm;57661;51.436;5.978;2023-03-31T00:17:31;29.19;27.51;37.62;;
67306;Laerm;57661;51.436;5.978;2023-03-31T00:17:44;29.10;27.49;39.03;;
67306;Laerm;57661;51.436;5.978;2023-03-31T00:17:56;28.97;27.11;38.09;;
67306;Laerm;57661;51.436;5.978;2023-03-31T00:18:09;28.89;27.18;37.66;;
67306;Laerm;57661;51.436;5.978;2023-03-31T00:18:19;28.42;27.18;36.32;;
67306;Laerm;57661;51.436;5.978;2023-03-31T00:18:30;28.79;27.37;37.25;;
67306;Laerm;57661;51.436;5.978;2023-03-31T00:18:40;28.83;27.19;37.63;;
67306;Laerm;57661;51.436;5.978;2023-03-31T00:18:56;28.63;27.21;38.34;;
67306;Laerm;57661;51.436;5.978;2023-03-31T00:19:06;28.51;27.25;35.97;;
67306;Laerm;57661;51.436;5.978;2023-03-31T00:19:19;28.74;27.41;39.07;;
67306;Laerm;57661;51.436;5.978;2023-03-31T00:19:29;28.63;27.20;36.21;;
67306;Laerm;57661;51.436;5.978;2023-03-31T00:19:42;28.74;27.22;39.79;;
67306;Laerm;57661;51.436;5.978;2023-03-31T00:19:52;28.68;27.22;38.74;;
67306;Laerm;57661;51.436;5.978;2023-03-31T00:20:02;28.70;27.17;37.27;;
67306;Laerm;57661;51.436;5.978;2023-03-31T00:20:14;28.52;27.35;36.26;;
67306;Laerm;57661;51.436;5.978;2023-03-31T00:20:25;28.61;27.45;36.80;;
67306;Laerm;57661;51.436;5.978;2023-03-31T00:20:35;28.59;27.39;37.05;;
67306;Laerm;57661;51.436;5.978;2023-03-31T00:20:47;28.62;27.30;36.51;;
67306;Laerm;57661;51.436;5.978;2023-03-31T00:21:20;29.12;27.56;38.61;;
67306;Laerm;57661;51.436;5.978;2023-03-31T00:21:33;29.04;27.23;39.97;;
67306;Laerm;57661;51.436;5.978;2023-03-31T00:21:46;29.19;27.43;39.12;;
67306;Laerm;57661;51.436;5.978;2023-03-31T00:21:56;28.84;27.48;39.95;;
67306;Laerm;57661;51.436;5.978;2023-03-31T00:22:11;29.11;27.09;38.38;;
67306;Laerm;57661;51.436;5.978;2023-03-31T00:22:21;29.29;27.29;38.75;;
67306;Laerm;57661;51.436;5.978;2023-03-31T00:22:31;29.07;27.26;38.12;;
67306;Laerm;57661;51.436;5.978;2023-03-31T00:22:41;28.97;27.27;38.48;;
67306;Laerm;57661;51.436;5.978;2023-03-31T00:22:55;28.90;27.30;37.36;;
67306;Laerm;57661;51.436;5.978;2023-03-31T00:23:06;29.22;27.48;39.50;;
67306;Laerm;57661;51.436;5.978;2023-03-31T00:23:19;29.01;27.23;37.71;;
67306;Laerm;57661;51.436;5.978;2023-03-31T00:23:36;28.99;27.34;36.94;;
67306;Laerm;57661;51.436;5.978;2023-03-31T00:23:47;28.77;27.54;34.61;;
67306;Laerm;57661;51.436;5.978;2023-03-31T00:24:07;29.34;27.40;37.48;;
67306;Laerm;57661;51.436;5.978;2023-03-31T00:24:18;29.90;27.66;40.58;;
67306;Laerm;57661;51.436;5.978;2023-03-31T00:24:29;29.52;27.76;37.81;;
67306;Laerm;57661;51.436;5.978;2023-03-31T00:24:42;29.74;27.48;41.71;;
67306;Laerm;57661;51.436;5.978;2023-03-31T00:24:52;29.85;27.57;38.24;;
67306;Laerm;57661;51.436;5.978;2023-03-31T00:25:03;29.76;27.70;39.05;;
67306;Laerm;57661;51.436;5.978;2023-03-31T00:25:14;30.01;27.52;39.54;;
67306;Laerm;57661;51.436;5.978;2023-03-31T00:25:24;29.81;27.62;38.13;;
67306;Laerm;57661;51.436;5.978;2023-03-31T00:25:38;29.72;27.28;39.01;;
67306;Laerm;57661;51.436;5.978;2023-03-31T00:25:49;29.60;27.42;40.69;;
67306;Laerm;57661;51.436;5.978;2023-03-31T00:26:00;29.41;27.56;38.50;;
67306;Laerm;57661;51.436;5.978;2023-03-31T00:26:10;29.61;27.48;39.35;;
67306;Laerm;57661;51.436;5.978;2023-03-31T00:26:20;29.48;27.58;38.42;;
67306;Laerm;57661;51.436;5.978;2023-03-31T00:26:34;29.47;27.58;37.83;;
67306;Laerm;57661;51.436;5.978;2023-03-31T00:26:45;29.65;27.79;38.33;;
67306;Laerm;57661;51.436;5.978;2023-03-31T00:26:55;29.75;27.72;41.00;;
67306;Laerm;57661;51.436;5.978;2023-03-31T00:27:05;29.65;27.58;37.87;;
67306;Laerm;57661;51.436;5.978;2023-03-31T00:27:15;29.79;27.35;39.02;;
67306;Laerm;57661;51.436;5.978;2023-03-31T00:27:26;29.56;27.50;37.37;;
67306;Laerm;57661;51.436;5.978;2023-03-31T00:27:37;29.43;27.26;38.48;;
67306;Laerm;57661;51.436;5.978;2023-03-31T00:27:47;29.29;27.40;37.99;;
67306;Laerm;57661;51.436;5.978;2023-03-31T00:27:59;29.29;27.44;38.71;;
67306;Laerm;57661;51.436;5.978;2023-03-31T00:28:09;28.94;27.46;36.36;;
67306;Laerm;57661;51.436;5.978;2023-03-31T00:28:20;29.01;27.58;37.19;;
67306;Laerm;57661;51.436;5.978;2023-03-31T00:28:31;28.99;27.21;38.04;;
67306;Laerm;57661;51.436;5.978;2023-03-31T00:28:41;28.92;27.28;38.26;;
67306;Laerm;57661;51.436;5.978;2023-03-31T00:28:51;29.14;27.20;38.17;;
67306;Laerm;57661;51.436;5.978;2023-03-31T00:29:02;28.91;27.51;39.48;;
67306;Laerm;57661;51.436;5.978;2023-03-31T00:29:13;28.92;27.20;37.51;;
67306;Laerm;57661;51.436;5.978;2023-03-31T00:29:23;28.85;27.39;38.03;;
67306;Laerm;57661;51.436;5.978;2023-03-31T00:29:33;28.47;27.27;37.56;;
67306;Laerm;57661;51.436;5.978;2023-03-31T00:29:45;28.84;27.46;37.70;;
67306;Laerm;57661;51.436;5.978;2023-03-31T00:29:55;28.54;27.43;35.48;;
67306;Laerm;57661;51.436;5.978;2023-03-31T00:30:05;28.71;27.40;36.81;;
67306;Laerm;57661;51.436;5.978;2023-03-31T00:30:16;28.63;27.15;35.74;;
67306;Laerm;57661;51.436;5.978;2023-03-31T00:30:27;29.11;27.19;38.62;;
67306;Laerm;57661;51.436;5.978;2023-03-31T00:30:37;28.84;27.44;36.21;;
67306;Laerm;57661;51.436;5.978;2023-03-31T00:30:48;29.64;27.53;38.53;;
67306;Laerm;57661;51.436;5.978;2023-03-31T00:30:59;29.41;27.30;37.93;;
67306;Laerm;57661;51.436;5.978;2023-03-31T00:31:10;37.84;27.53;46.60;;
67306;Laerm;57661;51.436;5.978;2023-03-31T00:31:20;35.22;27.98;45.29;;
67306;Laerm;57661;51.436;5.978;2023-03-31T00:31:31;29.75;27.69;36.97;;
67306;Laerm;57661;51.436;5.978;2023-03-31T00:31:41;29.17;27.69;36.28;;
67306;Laerm;57661;51.436;5.978;2023-03-31T00:31:52;29.55;27.28;37.14;;
67306;Laerm;57661;51.436;5.978;2023-03-31T00:32:02;29.57;27.50;38.03;;
67306;Laerm;57661;51.436;5.978;2023-03-31T00:32:12;29.48;27.52;40.69;;
67306;Laerm;57661;51.436;5.978;2023-03-31T00:32:23;29.08;27.45;36.36;;
67306;Laerm;57661;51.436;5.978;2023-03-31T00:32:33;29.15;27.24;38.02;;
67306;Laerm;57661;51.436;5.978;2023-03-31T00:32:44;29.00;27.51;36.74;;
67306;Laerm;57661;51.436;5.978;2023-03-31T00:32:54;29.03;27.44;36.84;;
67306;Laerm;57661;51.436;5.978;2023-03-31T00:33:05;29.13;27.33;37.01;;
67306;Laerm;57661;51.436;5.978;2023-03-31T00:33:15;28.91;27.41;37.50;;
67306;Laerm;57661;51.436;5.978;2023-03-31T00:33:26;28.88;27.21;37.62;;
67306;Laerm;57661;51.436;5.978;2023-03-31T00:33:36;29.00;27.34;37.90;;
67306;Laerm;57661;51.436;5.978;2023-03-31T00:33:46;28.78;27.31;37.57;;
67306;Laerm;57661;51.436;5.978;2023-03-31T00:33:56;28.97;27.36;38.58;;
67306;Laerm;57661;51.436;5.978;2023-03-31T00:34:07;28.38;27.33;35.68;;
67306;Laerm;57661;51.436;5.978;2023-03-31T00:34:17;28.34;27.30;33.04;;
67306;Laerm;57661;51.436;5.978;2023-03-31T00:34:27;28.70;27.27;38.10;;
67306;Laerm;57661;51.436;5.978;2023-03-31T00:34:39;28.47;27.20;37.52;;
67306;Laerm;57661;51.436;5.978;2023-03-31T00:34:49;28.22;27.32;29.04;;
67306;Laerm;57661;51.436;5.978;2023-03-31T00:35:00;28.67;27.54;37.37;;
67306;Laerm;57661;51.436;5.978;2023-03-31T00:35:11;28.37;27.03;36.10;;
67306;Laerm;57661;51.436;5.978;2023-03-31T00:35:21;28.20;27.17;28.96;;
67306;Laerm;57661;51.436;5.978;2023-03-31T00:35:33;28.36;27.08;35.41;;
67306;Laerm;57661;51.436;5.978;2023-03-31T00:35:44;28.41;27.22;38.22;;
67306;Laerm;57661;51.436;5.978;2023-03-31T00:35:55;28.45;27.38;36.21;;
67306;Laerm;57661;51.436;5.978;2023-03-31T00:36:05;28.16;27.20;28.98;;
67306;Laerm;57661;51.436;5.978;2023-03-31T00:36:16;28.24;27.21;29.07;;
67306;Laerm;57661;51.436;5.978;2023-03-31T00:36:30;28.45;26.93;37.93;;
67306;Laerm;57661;51.436;5.978;2023-03-31T00:36:41;28.19;27.27;28.92;;
67306;Laerm;57661;51.436;5.978;2023-03-31T00:36:56;28.34;26.57;36.34;;
67306;Laerm;57661;51.436;5.978;2023-03-31T00:37:11;28.23;27.21;33.79;;
67306;Laerm;57661;51.436;5.978;2023-03-31T00:37:24;28.28;27.30;34.44;;
67306;Laerm;57661;51.436;5.978;2023-03-31T00:37:35;28.43;27.13;37.62;;
67306;Laerm;57661;51.436;5.978;2023-03-31T00:37:45;28.19;27.16;29.15;;
67306;Laerm;57661;51.436;5.978;2023-03-31T00:37:56;28.19;27.17;29.03;;
67306;Laerm;57661;51.436;5.978;2023-03-31T00:38:07;28.38;27.25;36.82;;
67306;Laerm;57661;51.436;5.978;2023-03-31T00:38:18;28.20;27.11;29.58;;
67306;Laerm;57661;51.436;5.978;2023-03-31T00:38:31;28.42;27.31;36.32;;
67306;Laerm;57661;51.436;5.978;2023-03-31T00:38:41;28.18;27.29;29.24;;
67306;Laerm;57661;51.436;5.978;2023-03-31T00:38:58;28.23;27.23;31.88;;
67306;Laerm;57661;51.436;5.978;2023-03-31T00:39:09;28.38;27.36;37.90;;
67306;Laerm;57661;51.436;5.978;2023-03-31T00:39:19;28.23;27.25;29.34;;
67306;Laerm;57661;51.436;5.978;2023-03-31T00:39:30;28.21;26.99;29.15;;
67306;Laerm;57661;51.436;5.978;2023-03-31T00:39:44;28.31;27.15;35.65;;
67306;Laerm;57661;51.436;5.978;2023-03-31T00:39:55;28.18;27.09;29.03;;
67306;Laerm;57661;51.436;5.978;2023-03-31T00:40:05;28.43;27.19;37.96;;
67306;Laerm;57661;51.436;5.978;2023-03-31T00:40:18;28.19;27.35;29.12;;
67306;Laerm;57661;51.436;5.978;2023-03-31T00:40:29;28.21;27.14;29.22;;
67306;Laerm;57661;51.436;5.978;2023-03-31T00:40:43;28.16;27.27;29.07;;
67306;Laerm;57661;51.436;5.978;2023-03-31T00:40:53;28.22;27.36;29.24;;
67306;Laerm;57661;51.436;5.978;2023-03-31T00:41:03;28.32;27.34;34.24;;
67306;Laerm;57661;51.436;5.978;2023-03-31T00:41:15;28.18;27.17;29.06;;
67306;Laerm;57661;51.436;5.978;2023-03-31T00:41:26;28.18;27.36;29.28;;
67306;Laerm;57661;51.436;5.978;2023-03-31T00:41:37;28.23;27.30;29.78;;
67306;Laerm;57661;51.436;5.978;2023-03-31T00:41:48;28.21;27.41;29.06;;
67306;Laerm;57661;51.436;5.978;2023-03-31T00:41:58;28.15;27.00;29.04;;
67306;Laerm;57661;51.436;5.978;2023-03-31T00:42:11;28.33;27.25;36.87;;
67306;Laerm;57661;51.436;5.978;2023-03-31T00:42:24;28.20;27.37;29.33;;
67306;Laerm;57661;51.436;5.978;2023-03-31T00:42:39;28.23;27.29;32.97;;
67306;Laerm;57661;51.436;5.978;2023-03-31T00:42:49;28.19;27.25;29.48;;
67306;Laerm;57661;51.436;5.978;2023-03-31T00:42:59;28.46;27.23;38.84;;
67306;Laerm;57661;51.436;5.978;2023-03-31T00:43:14;28.21;27.12;29.22;;
67306;Laerm;57661;51.436;5.978;2023-03-31T00:43:30;28.22;27.05;31.07;;
67306;Laerm;57661;51.436;5.978;2023-03-31T00:43:58;28.20;27.31;29.36;;
67306;Laerm;57661;51.436;5.978;2023-03-31T00:44:14;28.19;27.08;29.07;;
67306;Laerm;57661;51.436;5.978;2023-03-31T00:44:28;28.36;27.09;38.79;;
67306;Laerm;57661;51.436;5.978;2023-03-31T00:45:28;28.31;27.34;38.23;;
67306;Laerm;57661;51.436;5.978;2023-03-31T00:45:39;28.21;27.45;28.93;;
67306;Laerm;57661;51.436;5.978;2023-03-31T00:45:49;28.19;27.29;29.24;;
67306;Laerm;57661;51.436;5.978;2023-03-31T00:46:04;28.22;27.31;29.07;;
67306;Laerm;57661;51.436;5.978;2023-03-31T00:46:21;28.22;27.34;29.16;;
67306;Laerm;57661;51.436;5.978;2023-03-31T00:46:40;28.29;27.21;36.25;;
67306;Laerm;57661;51.436;5.978;2023-03-31T00:47:05;28.19;27.19;29.19;;
67306;Laerm;57661;51.436;5.978;2023-03-31T00:47:19;28.20;27.10;29.14;;
67306;Laerm;57661;51.436;5.978;2023-03-31T00:47:30;28.19;27.12;28.99;;
67306;Laerm;57661;51.436;5.978;2023-03-31T00:47:47;28.49;26.66;38.29;;
67306;Laerm;57661;51.436;5.978;2023-03-31T00:48:05;28.20;27.35;29.41;;
67306;Laerm;57661;51.436;5.978;2023-03-31T00:48:19;28.19;27.15;29.25;;
67306;Laerm;57661;51.436;5.978;2023-03-31T00:48:30;28.20;27.21;29.05;;
67306;Laerm;57661;51.436;5.978;2023-03-31T00:48:41;28.21;27.28;29.00;;
67306;Laerm;57661;51.436;5.978;2023-03-31T00:48:56;28.21;27.07;29.49;;
67306;Laerm;57661;51.436;5.978;2023-03-31T00:49:08;28.17;27.30;29.19;;
67306;Laerm;57661;51.436;5.978;2023-03-31T00:49:36;28.23;27.19;29.04;;
67306;Laerm;57661;51.436;5.978;2023-03-31T00:49:49;28.20;27.40;29.11;;
67306;Laerm;57661;51.436;5.978;2023-03-31T00:50:05;28.19;27.08;29.10;;
67306;Laerm;57661;51.436;5.978;2023-03-31T00:50:25;28.21;27.20;29.16;;
67306;Laerm;57661;51.436;5.978;2023-03-31T00:50:43;28.18;27.17;29.15;;
67306;Laerm;57661;51.436;5.978;2023-03-31T00:50:58;28.19;27.27;29.38;;
67306;Laerm;57661;51.436;5.978;2023-03-31T00:51:11;28.17;26.80;29.12;;
67306;Laerm;57661;51.436;5.978;2023-03-31T00:51:23;28.18;27.09;29.16;;
67306;Laerm;57661;51.436;5.978;2023-03-31T00:51:34;28.19;27.15;29.21;;
67306;Laerm;57661;51.436;5.978;2023-03-31T00:51:45;28.21;27.36;29.04;;
67306;Laerm;57661;51.436;5.978;2023-03-31T00:52:05;28.20;27.31;29.08;;
67306;Laerm;57661;51.436;5.978;2023-03-31T00:52:18;28.21;27.19;29.16;;
67306;Laerm;57661;51.436;5.978;2023-03-31T00:52:33;28.17;27.34;29.16;;
67306;Laerm;57661;51.436;5.978;2023-03-31T00:53:09;28.19;27.25;29.31;;
67306;Laerm;57661;51.436;5.978;2023-03-31T00:53:18;28.20;27.14;30.23;;
67306;Laerm;57661;51.436;5.978;2023-03-31T00:53:31;28.19;27.12;29.03;;
67306;Laerm;57661;51.436;5.978;2023-03-31T00:53:42;28.17;27.36;29.10;;
67306;Laerm;57661;51.436;5.978;2023-03-31T00:53:55;28.42;27.11;38.25;;
67306;Laerm;57661;51.436;5.978;2023-03-31T00:54:08;28.18;27.24;29.22;;
67306;Laerm;57661;51.436;5.978;2023-03-31T00:54:21;28.20;27.36;29.06;;
67306;Laerm;57661;51.436;5.978;2023-03-31T00:54:32;28.19;27.08;29.36;;
67306;Laerm;57661;51.436;5.978;2023-03-31T00:54:44;28.21;26.98;29.05;;
67306;Laerm;57661;51.436;5.978;2023-03-31T00:54:57;28.20;27.30;29.40;;
67306;Laerm;57661;51.436;5.978;2023-03-31T00:55:11;28.20;27.15;29.12;;
67306;Laerm;57661;51.436;5.978;2023-03-31T00:55:34;28.17;27.18;28.99;;
67306;Laerm;57661;51.436;5.978;2023-03-31T00:55:48;28.20;27.32;29.08;;
67306;Laerm;57661;51.436;5.978;2023-03-31T00:56:01;28.20;26.96;29.32;;
67306;Laerm;57661;51.436;5.978;2023-03-31T00:56:15;28.20;27.24;29.42;;
67306;Laerm;57661;51.436;5.978;2023-03-31T00:56:27;28.18;27.29;29.33;;
67306;Laerm;57661;51.436;5.978;2023-03-31T00:56:41;28.20;27.22;29.15;;
67306;Laerm;57661;51.436;5.978;2023-03-31T00:56:54;28.21;27.32;29.17;;
67306;Laerm;57661;51.436;5.978;2023-03-31T00:57:07;28.16;27.20;29.21;;
67306;Laerm;57661;51.436;5.978;2023-03-31T00:57:18;28.21;27.17;29.04;;
67306;Laerm;57661;51.436;5.978;2023-03-31T00:57:29;28.21;27.06;29.05;;
67306;Laerm;57661;51.436;5.978;2023-03-31T00:57:41;28.20;27.09;29.14;;
67306;Laerm;57661;51.436;5.978;2023-03-31T00:57:53;28.22;27.27;29.11;;
67306;Laerm;57661;51.436;5.978;2023-03-31T00:58:04;28.18;27.17;29.19;;
67306;Laerm;57661;51.436;5.978;2023-03-31T00:58:16;28.24;27.39;29.32;;
67306;Laerm;57661;51.436;5.978;2023-03-31T00:58:29;28.17;27.30;28.85;;
67306;Laerm;57661;51.436;5.978;2023-03-31T00:58:42;28.20;27.13;29.25;;
67306;Laerm;57661;51.436;5.978;2023-03-31T00:58:54;28.22;27.18;29.10;;
67306;Laerm;57661;51.436;5.978;2023-03-31T00:59:07;28.20;26.91;29.33;;
67306;Laerm;57661;51.436;5.978;2023-03-31T00:59:19;28.19;26.95;29.14;;
67306;Laerm;57661;51.436;5.978;2023-03-31T00:59:33;28.18;27.28;28.97;;
67306;Laerm;57661;51.436;5.978;2023-03-31T00:59:51;28.20;27.31;29.11;;
67306;Laerm;57661;51.436;5.978;2023-03-31T01:00:04;28.19;27.20;28.97;;
67306;Laerm;57661;51.436;5.978;2023-03-31T01:00:24;28.19;27.18;29.10;;
67306;Laerm;57661;51.436;5.978;2023-03-31T01:00:34;28.21;27.20;29.29;;
67306;Laerm;57661;51.436;5.978;2023-03-31T01:00:48;28.21;27.38;29.01;;
67306;Laerm;57661;51.436;5.978;2023-03-31T01:01:00;28.20;27.17;29.16;;
67306;Laerm;57661;51.436;5.978;2023-03-31T01:01:13;28.22;27.25;29.06;;
67306;Laerm;57661;51.436;5.978;2023-03-31T01:01:23;28.22;27.33;29.07;;
67306;Laerm;57661;51.436;5.978;2023-03-31T01:01:34;28.19;27.30;29.31;;
67306;Laerm;57661;51.436;5.978;2023-03-31T01:01:45;28.22;27.22;29.32;;
67306;Laerm;57661;51.436;5.978;2023-03-31T01:01:57;28.23;26.98;29.16;;
67306;Laerm;57661;51.436;5.978;2023-03-31T01:02:11;28.19;27.08;29.07;;
67306;Laerm;57661;51.436;5.978;2023-03-31T01:02:22;28.18;27.10;29.15;;
67306;Laerm;57661;51.436;5.978;2023-03-31T01:02:35;28.21;27.24;29.49;;
67306;Laerm;57661;51.436;5.978;2023-03-31T01:02:54;28.18;27.21;28.96;;
67306;Laerm;57661;51.436;5.978;2023-03-31T01:03:08;28.18;27.29;29.15;;
67306;Laerm;57661;51.436;5.978;2023-03-31T01:03:19;28.18;27.32;28.94;;
67306;Laerm;57661;51.436;5.978;2023-03-31T01:03:31;28.18;27.21;29.19;;
67306;Laerm;57661;51.436;5.978;2023-03-31T01:03:42;28.18;27.16;29.15;;
67306;Laerm;57661;51.436;5.978;2023-03-31T01:03:55;28.21;27.31;29.06;;
67306;Laerm;57661;51.436;5.978;2023-03-31T01:04:06;28.21;27.09;29.04;;
67306;Laerm;57661;51.436;5.978;2023-03-31T01:04:18;28.18;27.22;28.93;;
67306;Laerm;57661;51.436;5.978;2023-03-31T01:04:33;28.20;27.26;29.02;;
67306;Laerm;57661;51.436;5.978;2023-03-31T01:04:45;28.21;27.18;29.20;;
67306;Laerm;57661;51.436;5.978;2023-03-31T01:04:59;28.21;27.12;29.80;;
67306;Laerm;57661;51.436;5.978;2023-03-31T01:05:11;28.19;27.28;29.25;;
67306;Laerm;57661;51.436;5.978;2023-03-31T01:05:22;28.18;27.13;29.14;;
67306;Laerm;57661;51.436;5.978;2023-03-31T01:05:34;28.22;27.05;29.19;;
67306;Laerm;57661;51.436;5.978;2023-03-31T01:05:49;28.21;27.37;29.07;;
67306;Laerm;57661;51.436;5.978;2023-03-31T01:06:03;28.19;27.23;29.10;;
67306;Laerm;57661;51.436;5.978;2023-03-31T01:06:15;28.19;27.29;29.22;;
67306;Laerm;57661;51.436;5.978;2023-03-31T01:06:28;28.20;27.34;29.22;;
67306;Laerm;57661;51.436;5.978;2023-03-31T01:06:43;28.23;27.24;29.23;;
67306;Laerm;57661;51.436;5.978;2023-03-31T01:07:36;28.19;27.33;29.34;;
67306;Laerm;57661;51.436;5.978;2023-03-31T01:07:48;28.19;27.21;29.09;;
67306;Laerm;57661;51.436;5.978;2023-03-31T01:07:59;28.14;27.25;28.98;;
67306;Laerm;57661;51.436;5.978;2023-03-31T01:08:12;28.21;27.07;29.09;;
67306;Laerm;57661;51.436;5.978;2023-03-31T01:08:24;28.18;27.23;28.86;;
67306;Laerm;57661;51.436;5.978;2023-03-31T01:08:35;28.20;27.37;29.03;;
67306;Laerm;57661;51.436;5.978;2023-03-31T01:08:47;28.22;27.19;29.18;;
67306;Laerm;57661;51.436;5.978;2023-03-31T01:08:57;28.24;27.26;29.09;;
67306;Laerm;57661;51.436;5.978;2023-03-31T01:09:08;28.19;27.41;29.00;;
67306;Laerm;57661;51.436;5.978;2023-03-31T01:09:19;28.22;27.37;29.11;;
67306;Laerm;57661;51.436;5.978;2023-03-31T01:09:31;28.17;27.28;29.19;;
67306;Laerm;57661;51.436;5.978;2023-03-31T01:09:48;28.21;27.18;29.13;;